sensor_id;sensor_type;location;lat;lon;timestamp;temperature;humidity
66102;HTU21D;52883;51.094;5.880;2022-12-18T00:00:42;-7.19;118.99
66102;HTU21D;52883;51.094;5.880;2022-12-18T00:03:09;-7.23;118.99
66102;HTU21D;52883;51.094;5.880;2022-12-18T00:05:35;-7.31;118.99
66102;HTU21D;52883;51.094;5.880;2022-12-18T00:08:01;-7.36;118.99
66102;HTU21D;52883;51.094;5.880;2022-12-18T00:10:28;-7.37;118.99
66102;HTU21D;52883;51.094;5.880;2022-12-18T00:12:54;-7.37;118.99
66102;HTU21D;52883;51.094;5.880;2022-12-18T00:15:19;-7.46;118.99
66102;HTU21D;52883;51.094;5.880;2022-12-18T00:17:46;-7.61;118.99
66102;HTU21D;52883;51.094;5.880;2022-12-18T00:20:13;-7.59;118.99
66102;HTU21D;52883;51.094;5.880;2022-12-18T00:22:38;-7.68;118.99
66102;HTU21D;52883;51.094;5.880;2022-12-18T00:25:04;-7.77;118.99
66102;HTU21D;52883;51.094;5.880;2022-12-18T00:27:30;-7.69;118.99
66102;HTU21D;52883;51.094;5.880;2022-12-18T00:29:55;-7.66;118.99
66102;HTU21D;52883;51.094;5.880;2022-12-18T00:32:21;-7.60;118.99
66102;HTU21D;52883;51.094;5.880;2022-12-18T00:34:46;-7.53;118.99
66102;HTU21D;52883;51.094;5.880;2022-12-18T00:37:12;-7.49;118.99
66102;HTU21D;52883;51.094;5.880;2022-12-18T00:39:38;-7.47;118.99
66102;HTU21D;52883;51.094;5.880;2022-12-18T00:42:03;-7.34;118.99
66102;HTU21D;52883;51.094;5.880;2022-12-18T00:44:48;-7.31;118.99
66102;HTU21D;52883;51.094;5.880;2022-12-18T00:47:14;-7.31;118.99
66102;HTU21D;52883;51.094;5.880;2022-12-18T00:49:40;-7.31;118.99
66102;HTU21D;52883;51.094;5.880;2022-12-18T00:52:05;-7.26;118.99
66102;HTU21D;52883;51.094;5.880;2022-12-18T00:54:31;-7.22;118.99
66102;HTU21D;52883;51.094;5.880;2022-12-18T00:56:56;-7.19;118.99
66102;HTU21D;52883;51.094;5.880;2022-12-18T00:59:22;-7.17;118.99
66102;HTU21D;52883;51.094;5.880;2022-12-18T01:01:49;-7.16;118.99
66102;HTU21D;52883;51.094;5.880;2022-12-18T01:04:15;-7.17;118.99
66102;HTU21D;52883;51.094;5.880;2022-12-18T01:06:44;-7.12;118.99
66102;HTU21D;52883;51.094;5.880;2022-12-18T01:09:09;-7.05;118.99
66102;HTU21D;52883;51.094;5.880;2022-12-18T01:11:35;-7.02;118.99
66102;HTU21D;52883;51.094;5.880;2022-12-18T01:14:03;-6.96;118.99
66102;HTU21D;52883;51.094;5.880;2022-12-18T01:16:28;-7.01;118.99
66102;HTU21D;52883;51.094;5.880;2022-12-18T01:18:55;-7.05;118.99
66102;HTU21D;52883;51.094;5.880;2022-12-18T01:21:22;-7.08;118.99
66102;HTU21D;52883;51.094;5.880;2022-12-18T01:23:52;-7.09;118.99
66102;HTU21D;52883;51.094;5.880;2022-12-18T01:26:18;-7.12;118.99
66102;HTU21D;52883;51.094;5.880;2022-12-18T01:28:44;-7.16;118.99
66102;HTU21D;52883;51.094;5.880;2022-12-18T01:31:11;-7.19;118.99
66102;HTU21D;52883;51.094;5.880;2022-12-18T01:33:37;-7.19;118.99
66102;HTU21D;52883;51.094;5.880;2022-12-18T01:36:05;-7.17;118.99
66102;HTU21D;52883;51.094;5.880;2022-12-18T01:38:30;-7.16;118.99
66102;HTU21D;52883;51.094;5.880;2022-12-18T01:41:01;-7.17;118.99
66102;HTU21D;52883;51.094;5.880;2022-12-18T01:46:20;-7.27;118.99
66102;HTU21D;52883;51.094;5.880;2022-12-18T01:49:02;-7.42;118.99
66102;HTU21D;52883;51.094;5.880;2022-12-18T01:51:29;-7.40;118.99
66102;HTU21D;52883;51.094;5.880;2022-12-18T01:53:57;-7.41;118.99
66102;HTU21D;52883;51.094;5.880;2022-12-18T01:56:24;-7.44;118.99
66102;HTU21D;52883;51.094;5.880;2022-12-18T01:58:58;-7.46;118.99
66102;HTU21D;52883;51.094;5.880;2022-12-18T02:01:26;-7.42;118.99
66102;HTU21D;52883;51.094;5.880;2022-12-18T02:03:52;-7.42;118.99
66102;HTU21D;52883;51.094;5.880;2022-12-18T02:06:34;-7.40;118.99
66102;HTU21D;52883;51.094;5.880;2022-12-18T02:09:11;-7.41;118.99
66102;HTU21D;52883;51.094;5.880;2022-12-18T02:12:04;-7.40;118.99
66102;HTU21D;52883;51.094;5.880;2022-12-18T02:14:49;-7.38;118.99
66102;HTU21D;52883;51.094;5.880;2022-12-18T02:17:23;-7.29;118.99
66102;HTU21D;52883;51.094;5.880;2022-12-18T02:23:12;-7.23;118.99
66102;HTU21D;52883;51.094;5.880;2022-12-18T02:26:18;-7.19;118.99
66102;HTU21D;52883;51.094;5.880;2022-12-18T02:28:53;-7.20;118.99
66102;HTU21D;52883;51.094;5.880;2022-12-18T02:31:27;-7.16;118.99
66102;HTU21D;52883;51.094;5.880;2022-12-18T02:33:58;-7.18;118.99
66102;HTU21D;52883;51.094;5.880;2022-12-18T02:36:28;-7.22;118.99
66102;HTU21D;52883;51.094;5.880;2022-12-18T02:38:56;-7.22;118.99
66102;HTU21D;52883;51.094;5.880;2022-12-18T02:41:23;-7.23;118.99
66102;HTU21D;52883;51.094;5.880;2022-12-18T02:43:57;-7.25;118.99
66102;HTU21D;52883;51.094;5.880;2022-12-18T02:57:42;-7.20;118.99
66102;HTU21D;52883;51.094;5.880;2022-12-18T03:00:28;-7.21;118.99
66102;HTU21D;52883;51.094;5.880;2022-12-18T03:06:02;-7.19;118.99
66102;HTU21D;52883;51.094;5.880;2022-12-18T03:08:46;-7.20;118.99
66102;HTU21D;52883;51.094;5.880;2022-12-18T03:11:16;-7.19;118.99
66102;HTU21D;52883;51.094;5.880;2022-12-18T03:14:04;-7.19;118.99
66102;HTU21D;52883;51.094;5.880;2022-12-18T03:16:31;-7.25;118.99
66102;HTU21D;52883;51.094;5.880;2022-12-18T03:19:01;-7.30;118.99
66102;HTU21D;52883;51.094;5.880;2022-12-18T03:21:40;-7.24;118.99
66102;HTU21D;52883;51.094;5.880;2022-12-18T03:24:09;-7.15;118.99
66102;HTU21D;52883;51.094;5.880;2022-12-18T03:26:43;-7.05;118.99
66102;HTU21D;52883;51.094;5.880;2022-12-18T03:29:17;-6.97;118.99
66102;HTU21D;52883;51.094;5.880;2022-12-18T03:31:51;-6.88;118.99
66102;HTU21D;52883;51.094;5.880;2022-12-18T03:34:28;-6.83;118.99
66102;HTU21D;52883;51.094;5.880;2022-12-18T03:36:55;-6.81;118.99
66102;HTU21D;52883;51.094;5.880;2022-12-18T03:39:23;-6.73;118.99
66102;HTU21D;52883;51.094;5.880;2022-12-18T03:47:38;-6.85;118.99
66102;HTU21D;52883;51.094;5.880;2022-12-18T03:53:04;-6.85;118.99
66102;HTU21D;52883;51.094;5.880;2022-12-18T03:55:34;-6.88;118.99
66102;HTU21D;52883;51.094;5.880;2022-12-18T03:58:06;-6.91;118.99
66102;HTU21D;52883;51.094;5.880;2022-12-18T04:00:53;-6.91;118.99
66102;HTU21D;52883;51.094;5.880;2022-12-18T04:03:21;-6.95;118.99
66102;HTU21D;52883;51.094;5.880;2022-12-18T04:05:51;-7.03;118.99
66102;HTU21D;52883;51.094;5.880;2022-12-18T04:08:20;-7.08;118.99
66102;HTU21D;52883;51.094;5.880;2022-12-18T04:10:55;-7.09;118.99
66102;HTU21D;52883;51.094;5.880;2022-12-18T04:13:43;-7.09;118.99
66102;HTU21D;52883;51.094;5.880;2022-12-18T04:16:18;-7.06;118.99
66102;HTU21D;52883;51.094;5.880;2022-12-18T04:18:45;-7.02;118.99
66102;HTU21D;52883;51.094;5.880;2022-12-18T04:21:11;-7.07;118.99
66102;HTU21D;52883;51.094;5.880;2022-12-18T04:23:37;-7.10;118.99
66102;HTU21D;52883;51.094;5.880;2022-12-18T04:26:03;-7.10;118.99
66102;HTU21D;52883;51.094;5.880;2022-12-18T04:28:43;-7.13;118.99
66102;HTU21D;52883;51.094;5.880;2022-12-18T04:31:09;-7.15;118.99
66102;HTU21D;52883;51.094;5.880;2022-12-18T04:33:35;-7.13;118.99
66102;HTU21D;52883;51.094;5.880;2022-12-18T04:36:01;-7.11;118.99
66102;HTU21D;52883;51.094;5.880;2022-12-18T04:38:27;-7.12;118.99
66102;HTU21D;52883;51.094;5.880;2022-12-18T04:41:01;-7.15;118.99
66102;HTU21D;52883;51.094;5.880;2022-12-18T04:43:27;-7.13;118.99
66102;HTU21D;52883;51.094;5.880;2022-12-18T04:45:52;-7.12;118.99
66102;HTU21D;52883;51.094;5.880;2022-12-18T04:48:18;-7.07;118.99
66102;HTU21D;52883;51.094;5.880;2022-12-18T04:50:47;-6.98;118.99
66102;HTU21D;52883;51.094;5.880;2022-12-18T04:53:13;-7.01;118.99
66102;HTU21D;52883;51.094;5.880;2022-12-18T04:55:38;-6.97;118.99
66102;HTU21D;52883;51.094;5.880;2022-12-18T04:58:04;-6.95;118.99
66102;HTU21D;52883;51.094;5.880;2022-12-18T05:00:29;-6.96;118.99
66102;HTU21D;52883;51.094;5.880;2022-12-18T05:02:55;-7.02;118.99
66102;HTU21D;52883;51.094;5.880;2022-12-18T05:05:21;-7.05;118.99
66102;HTU21D;52883;51.094;5.880;2022-12-18T05:07:46;-7.08;118.99
66102;HTU21D;52883;51.094;5.880;2022-12-18T05:10:12;-7.16;118.99
66102;HTU21D;52883;51.094;5.880;2022-12-18T05:12:37;-7.24;118.99
66102;HTU21D;52883;51.094;5.880;2022-12-18T05:15:24;-7.38;118.99
66102;HTU21D;52883;51.094;5.880;2022-12-18T05:17:51;-7.40;118.99
66102;HTU21D;52883;51.094;5.880;2022-12-18T05:20:17;-7.38;118.99
66102;HTU21D;52883;51.094;5.880;2022-12-18T05:22:43;-7.31;118.99
66102;HTU21D;52883;51.094;5.880;2022-12-18T05:25:09;-7.23;118.99
66102;HTU21D;52883;51.094;5.880;2022-12-18T05:27:35;-7.17;118.99
66102;HTU21D;52883;51.094;5.880;2022-12-18T05:30:00;-7.11;118.99
66102;HTU21D;52883;51.094;5.880;2022-12-18T05:32:26;-7.06;118.99
66102;HTU21D;52883;51.094;5.880;2022-12-18T05:34:51;-7.11;118.99
66102;HTU21D;52883;51.094;5.880;2022-12-18T05:37:17;-7.11;118.99
66102;HTU21D;52883;51.094;5.880;2022-12-18T05:39:44;-7.11;118.99
66102;HTU21D;52883;51.094;5.880;2022-12-18T05:42:09;-7.06;118.99
66102;HTU21D;52883;51.094;5.880;2022-12-18T05:44:35;-7.02;118.99
66102;HTU21D;52883;51.094;5.880;2022-12-18T05:47:00;-7.01;118.99
66102;HTU21D;52883;51.094;5.880;2022-12-18T05:49:26;-7.03;118.99
66102;HTU21D;52883;51.094;5.880;2022-12-18T05:51:52;-6.95;118.99
66102;HTU21D;52883;51.094;5.880;2022-12-18T05:54:17;-6.96;118.99
66102;HTU21D;52883;51.094;5.880;2022-12-18T05:56:43;-6.96;118.99
66102;HTU21D;52883;51.094;5.880;2022-12-18T05:59:08;-7.00;118.99
66102;HTU21D;52883;51.094;5.880;2022-12-18T06:01:35;-6.98;118.99
66102;HTU21D;52883;51.094;5.880;2022-12-18T06:04:01;-6.98;118.99
66102;HTU21D;52883;51.094;5.880;2022-12-18T06:06:27;-7.00;118.99
66102;HTU21D;52883;51.094;5.880;2022-12-18T06:08:55;-6.94;118.99
66102;HTU21D;52883;51.094;5.880;2022-12-18T06:11:24;-6.95;118.99
66102;HTU21D;52883;51.094;5.880;2022-12-18T06:13:52;-6.94;118.99
66102;HTU21D;52883;51.094;5.880;2022-12-18T06:16:18;-6.89;118.99
66102;HTU21D;52883;51.094;5.880;2022-12-18T06:18:44;-6.88;118.99
66102;HTU21D;52883;51.094;5.880;2022-12-18T06:21:09;-6.85;118.99
66102;HTU21D;52883;51.094;5.880;2022-12-18T06:23:35;-6.80;118.99
66102;HTU21D;52883;51.094;5.880;2022-12-18T06:26:08;-6.75;118.99
66102;HTU21D;52883;51.094;5.880;2022-12-18T06:28:34;-6.67;118.99
66102;HTU21D;52883;51.094;5.880;2022-12-18T06:31:00;-6.70;118.99
66102;HTU21D;52883;51.094;5.880;2022-12-18T06:33:28;-6.68;118.99
66102;HTU21D;52883;51.094;5.880;2022-12-18T06:35:58;-6.68;118.99
66102;HTU21D;52883;51.094;5.880;2022-12-18T06:38:25;-6.71;118.99
66102;HTU21D;52883;51.094;5.880;2022-12-18T06:40:51;-6.70;118.99
66102;HTU21D;52883;51.094;5.880;2022-12-18T06:43:16;-6.68;118.99
66102;HTU21D;52883;51.094;5.880;2022-12-18T06:45:42;-6.60;118.99
66102;HTU21D;52883;51.094;5.880;2022-12-18T06:48:07;-6.55;118.99
66102;HTU21D;52883;51.094;5.880;2022-12-18T06:50:33;-6.53;118.99
66102;HTU21D;52883;51.094;5.880;2022-12-18T06:52:59;-6.60;118.99
66102;HTU21D;52883;51.094;5.880;2022-12-18T06:55:25;-6.62;118.99
66102;HTU21D;52883;51.094;5.880;2022-12-18T06:57:51;-6.60;118.99
66102;HTU21D;52883;51.094;5.880;2022-12-18T07:00:17;-6.60;118.99
66102;HTU21D;52883;51.094;5.880;2022-12-18T07:02:42;-6.56;118.99
66102;HTU21D;52883;51.094;5.880;2022-12-18T07:05:08;-6.61;118.99
66102;HTU21D;52883;51.094;5.880;2022-12-18T07:07:35;-6.66;118.99
66102;HTU21D;52883;51.094;5.880;2022-12-18T07:10:00;-6.67;118.99
66102;HTU21D;52883;51.094;5.880;2022-12-18T07:12:29;-6.66;118.99
66102;HTU21D;52883;51.094;5.880;2022-12-18T07:14:55;-6.67;118.99
66102;HTU21D;52883;51.094;5.880;2022-12-18T07:17:20;-6.73;118.99
66102;HTU21D;52883;51.094;5.880;2022-12-18T07:19:46;-6.68;118.99
66102;HTU21D;52883;51.094;5.880;2022-12-18T07:22:12;-6.68;118.99
66102;HTU21D;52883;51.094;5.880;2022-12-18T07:24:37;-6.63;118.99
66102;HTU21D;52883;51.094;5.880;2022-12-18T07:27:03;-6.60;118.99
66102;HTU21D;52883;51.094;5.880;2022-12-18T07:29:29;-6.52;118.99
66102;HTU21D;52883;51.094;5.880;2022-12-18T07:31:55;-6.51;118.99
66102;HTU21D;52883;51.094;5.880;2022-12-18T07:34:20;-6.50;118.99
66102;HTU21D;52883;51.094;5.880;2022-12-18T07:36:46;-6.43;118.99
66102;HTU21D;52883;51.094;5.880;2022-12-18T07:39:11;-6.42;118.99
66102;HTU21D;52883;51.094;5.880;2022-12-18T07:41:37;-6.28;118.99
66102;HTU21D;52883;51.094;5.880;2022-12-18T07:44:10;-6.23;118.99
66102;HTU21D;52883;51.094;5.880;2022-12-18T07:46:35;-6.24;118.99
66102;HTU21D;52883;51.094;5.880;2022-12-18T07:49:01;-6.14;118.99
66102;HTU21D;52883;51.094;5.880;2022-12-18T07:51:27;-6.06;118.99
66102;HTU21D;52883;51.094;5.880;2022-12-18T07:53:52;-5.98;118.99
66102;HTU21D;52883;51.094;5.880;2022-12-18T07:56:18;-5.93;118.99
66102;HTU21D;52883;51.094;5.880;2022-12-18T07:58:47;-5.87;118.99
66102;HTU21D;52883;51.094;5.880;2022-12-18T08:01:12;-5.79;118.99
66102;HTU21D;52883;51.094;5.880;2022-12-18T08:03:39;-5.73;118.99
66102;HTU21D;52883;51.094;5.880;2022-12-18T08:06:07;-5.55;118.99
66102;HTU21D;52883;51.094;5.880;2022-12-18T08:08:34;-5.41;118.99
66102;HTU21D;52883;51.094;5.880;2022-12-18T08:11:00;-5.42;118.99
66102;HTU21D;52883;51.094;5.880;2022-12-18T08:13:26;-5.32;118.99
66102;HTU21D;52883;51.094;5.880;2022-12-18T08:16:01;-5.26;118.99
66102;HTU21D;52883;51.094;5.880;2022-12-18T08:18:28;-5.15;118.99
66102;HTU21D;52883;51.094;5.880;2022-12-18T08:20:54;-5.12;118.99
66102;HTU21D;52883;51.094;5.880;2022-12-18T08:23:20;-5.07;118.99
66102;HTU21D;52883;51.094;5.880;2022-12-18T08:25:45;-5.08;118.99
66102;HTU21D;52883;51.094;5.880;2022-12-18T08:28:11;-5.02;118.99
66102;HTU21D;52883;51.094;5.880;2022-12-18T08:30:37;-4.98;118.99
66102;HTU21D;52883;51.094;5.880;2022-12-18T08:33:03;-4.80;118.99
66102;HTU21D;52883;51.094;5.880;2022-12-18T08:35:28;-4.74;118.99
66102;HTU21D;52883;51.094;5.880;2022-12-18T08:37:54;-4.57;118.99
66102;HTU21D;52883;51.094;5.880;2022-12-18T08:40:19;-4.44;118.99
66102;HTU21D;52883;51.094;5.880;2022-12-18T08:42:45;-4.28;118.99
66102;HTU21D;52883;51.094;5.880;2022-12-18T08:45:29;-4.16;118.99
66102;HTU21D;52883;51.094;5.880;2022-12-18T08:47:58;-4.04;118.99
66102;HTU21D;52883;51.094;5.880;2022-12-18T08:50:23;-4.05;118.99
66102;HTU21D;52883;51.094;5.880;2022-12-18T08:52:49;-4.04;118.99
66102;HTU21D;52883;51.094;5.880;2022-12-18T08:55:15;-4.08;118.99
66102;HTU21D;52883;51.094;5.880;2022-12-18T08:57:40;-4.01;118.99
66102;HTU21D;52883;51.094;5.880;2022-12-18T09:00:06;-3.95;118.99
66102;HTU21D;52883;51.094;5.880;2022-12-18T09:02:33;-3.86;118.99
66102;HTU21D;52883;51.094;5.880;2022-12-18T09:04:58;-3.64;118.99
66102;HTU21D;52883;51.094;5.880;2022-12-18T09:07:24;-3.56;118.99
66102;HTU21D;52883;51.094;5.880;2022-12-18T09:09:49;-3.46;118.99
66102;HTU21D;52883;51.094;5.880;2022-12-18T09:12:15;-3.41;118.99
66102;HTU21D;52883;51.094;5.880;2022-12-18T09:14:40;-3.26;118.99
66102;HTU21D;52883;51.094;5.880;2022-12-18T09:17:06;-3.28;118.99
66102;HTU21D;52883;51.094;5.880;2022-12-18T09:19:31;-3.25;118.99
66102;HTU21D;52883;51.094;5.880;2022-12-18T09:21:57;-3.16;118.99
66102;HTU21D;52883;51.094;5.880;2022-12-18T09:24:23;-3.10;118.99
66102;HTU21D;52883;51.094;5.880;2022-12-18T09:26:52;-3.03;118.99
66102;HTU21D;52883;51.094;5.880;2022-12-18T09:29:18;-3.05;118.99
66102;HTU21D;52883;51.094;5.880;2022-12-18T09:31:43;-3.01;118.99
66102;HTU21D;52883;51.094;5.880;2022-12-18T09:34:09;-2.94;118.99
66102;HTU21D;52883;51.094;5.880;2022-12-18T09:36:34;-2.81;118.99
66102;HTU21D;52883;51.094;5.880;2022-12-18T09:39:00;-2.74;118.99
66102;HTU21D;52883;51.094;5.880;2022-12-18T09:49:58;-2.34;118.99
66102;HTU21D;52883;51.094;5.880;2022-12-18T09:52:37;-2.26;118.99
66102;HTU21D;52883;51.094;5.880;2022-12-18T09:55:38;-2.05;118.99
66102;HTU21D;52883;51.094;5.880;2022-12-18T10:00:37;-1.88;118.99
66102;HTU21D;52883;51.094;5.880;2022-12-18T10:03:10;-1.73;118.99
66102;HTU21D;52883;51.094;5.880;2022-12-18T10:08:40;-1.56;118.99
66102;HTU21D;52883;51.094;5.880;2022-12-18T10:14:29;-1.55;118.99
66102;HTU21D;52883;51.094;5.880;2022-12-18T10:20:15;-1.45;118.99
66102;HTU21D;52883;51.094;5.880;2022-12-18T10:25:29;-1.40;118.99
66102;HTU21D;52883;51.094;5.880;2022-12-18T10:28:12;-1.31;118.99
66102;HTU21D;52883;51.094;5.880;2022-12-18T10:30:39;-1.26;118.99
66102;HTU21D;52883;51.094;5.880;2022-12-18T10:33:05;-1.11;118.99
66102;HTU21D;52883;51.094;5.880;2022-12-18T10:35:34;-1.12;118.99
66102;HTU21D;52883;51.094;5.880;2022-12-18T10:40:55;-0.95;118.99
66102;HTU21D;52883;51.094;5.880;2022-12-18T10:43:27;-0.90;118.99
66102;HTU21D;52883;51.094;5.880;2022-12-18T10:53:54;-0.72;118.99
66102;HTU21D;52883;51.094;5.880;2022-12-18T10:56:21;-0.66;118.99
66102;HTU21D;52883;51.094;5.880;2022-12-18T10:59:08;-0.66;118.99
66102;HTU21D;52883;51.094;5.880;2022-12-18T11:01:50;-0.58;118.99
66102;HTU21D;52883;51.094;5.880;2022-12-18T11:04:22;-0.60;118.99
66102;HTU21D;52883;51.094;5.880;2022-12-18T11:07:02;-0.53;118.99
66102;HTU21D;52883;51.094;5.880;2022-12-18T11:09:36;-0.55;118.99
66102;HTU21D;52883;51.094;5.880;2022-12-18T11:14:46;-0.41;118.99
66102;HTU21D;52883;51.094;5.880;2022-12-18T11:17:33;-0.31;118.99
66102;HTU21D;52883;51.094;5.880;2022-12-18T11:20:06;-0.22;118.99
66102;HTU21D;52883;51.094;5.880;2022-12-18T11:22:35;-0.19;118.99
66102;HTU21D;52883;51.094;5.880;2022-12-18T11:25:06;-0.25;118.99
66102;HTU21D;52883;51.094;5.880;2022-12-18T11:27:53;-0.17;118.99
66102;HTU21D;52883;51.094;5.880;2022-12-18T11:32:49;-0.10;118.99
66102;HTU21D;52883;51.094;5.880;2022-12-18T11:35:25;-0.05;118.99
66102;HTU21D;52883;51.094;5.880;2022-12-18T11:37:59;-0.01;118.99
66102;HTU21D;52883;51.094;5.880;2022-12-18T11:40:38;0.06;118.99
66102;HTU21D;52883;51.094;5.880;2022-12-18T11:43:27;0.13;118.99
66102;HTU21D;52883;51.094;5.880;2022-12-18T11:46:24;0.13;118.99
66102;HTU21D;52883;51.094;5.880;2022-12-18T11:49:13;0.10;118.99
66102;HTU21D;52883;51.094;5.880;2022-12-18T11:51:55;0.13;118.99
66102;HTU21D;52883;51.094;5.880;2022-12-18T11:54:24;0.20;118.99
66102;HTU21D;52883;51.094;5.880;2022-12-18T11:57:03;0.17;118.99
66102;HTU21D;52883;51.094;5.880;2022-12-18T12:02:37;0.28;118.99
66102;HTU21D;52883;51.094;5.880;2022-12-18T12:05:30;0.23;118.99
66102;HTU21D;52883;51.094;5.880;2022-12-18T12:08:15;0.25;118.99
66102;HTU21D;52883;51.094;5.880;2022-12-18T12:11:06;0.29;118.99
66102;HTU21D;52883;51.094;5.880;2022-12-18T12:21:46;0.50;118.99
66102;HTU21D;52883;51.094;5.880;2022-12-18T12:24:38;0.59;118.99
66102;HTU21D;52883;51.094;5.880;2022-12-18T12:30:13;0.72;118.99
66102;HTU21D;52883;51.094;5.880;2022-12-18T12:40:42;0.79;118.99
66102;HTU21D;52883;51.094;5.880;2022-12-18T12:43:24;0.82;118.99
66102;HTU21D;52883;51.094;5.880;2022-12-18T12:45:57;0.84;118.99
66102;HTU21D;52883;51.094;5.880;2022-12-18T12:53:55;0.86;118.99
66102;HTU21D;52883;51.094;5.880;2022-12-18T12:56:29;0.92;118.99
66102;HTU21D;52883;51.094;5.880;2022-12-18T12:59:02;0.92;118.99
66102;HTU21D;52883;51.094;5.880;2022-12-18T13:02:13;0.90;118.99
66102;HTU21D;52883;51.094;5.880;2022-12-18T13:04:53;0.96;118.99
66102;HTU21D;52883;51.094;5.880;2022-12-18T13:10:13;0.91;118.99
66102;HTU21D;52883;51.094;5.880;2022-12-18T13:13:09;0.88;118.99
66102;HTU21D;52883;51.094;5.880;2022-12-18T13:15:46;0.91;118.99
66102;HTU21D;52883;51.094;5.880;2022-12-18T13:18:22;0.97;118.99
66102;HTU21D;52883;51.094;5.880;2022-12-18T13:23:35;1.01;118.99
66102;HTU21D;52883;51.094;5.880;2022-12-18T13:34:22;1.03;118.99
66102;HTU21D;52883;51.094;5.880;2022-12-18T13:36:50;0.99;118.99
66102;HTU21D;52883;51.094;5.880;2022-12-18T13:41:53;0.96;118.99
66102;HTU21D;52883;51.094;5.880;2022-12-18T13:44:35;0.96;118.99
66102;HTU21D;52883;51.094;5.880;2022-12-18T13:47:05;0.96;118.99
66102;HTU21D;52883;51.094;5.880;2022-12-18T13:49:38;0.92;118.99
66102;HTU21D;52883;51.094;5.880;2022-12-18T13:52:20;0.93;118.99
66102;HTU21D;52883;51.094;5.880;2022-12-18T13:54:51;0.92;118.99
66102;HTU21D;52883;51.094;5.880;2022-12-18T13:57:36;0.92;118.99
66102;HTU21D;52883;51.094;5.880;2022-12-18T14:02:49;0.88;118.99
66102;HTU21D;52883;51.094;5.880;2022-12-18T14:05:22;0.84;118.99
66102;HTU21D;52883;51.094;5.880;2022-12-18T14:07:48;0.81;118.99
66102;HTU21D;52883;51.094;5.880;2022-12-18T14:10:15;0.84;118.99
66102;HTU21D;52883;51.094;5.880;2022-12-18T14:12:47;0.81;118.99
66102;HTU21D;52883;51.094;5.880;2022-12-18T14:15:32;0.80;118.99
66102;HTU21D;52883;51.094;5.880;2022-12-18T14:18:02;0.79;118.99
66102;HTU21D;52883;51.094;5.880;2022-12-18T14:20:31;0.80;118.99
66102;HTU21D;52883;51.094;5.880;2022-12-18T14:22:58;0.76;118.99
66102;HTU21D;52883;51.094;5.880;2022-12-18T14:25:30;0.74;118.99
66102;HTU21D;52883;51.094;5.880;2022-12-18T14:30:45;0.72;118.99
66102;HTU21D;52883;51.094;5.880;2022-12-18T14:33:17;0.71;118.99
66102;HTU21D;52883;51.094;5.880;2022-12-18T14:38:23;0.67;118.99
66102;HTU21D;52883;51.094;5.880;2022-12-18T14:41:12;0.63;118.99
66102;HTU21D;52883;51.094;5.880;2022-12-18T14:43:41;0.60;118.99
66102;HTU21D;52883;51.094;5.880;2022-12-18T14:48:56;0.53;118.99
66102;HTU21D;52883;51.094;5.880;2022-12-18T14:51:27;0.48;118.99
66102;HTU21D;52883;51.094;5.880;2022-12-18T14:53:54;0.48;118.99
66102;HTU21D;52883;51.094;5.880;2022-12-18T14:56:32;0.42;118.99
66102;HTU21D;52883;51.094;5.880;2022-12-18T14:59:05;0.35;118.99
66102;HTU21D;52883;51.094;5.880;2022-12-18T15:07:13;0.34;118.99
66102;HTU21D;52883;51.094;5.880;2022-12-18T15:09:42;0.30;118.99
66102;HTU21D;52883;51.094;5.880;2022-12-18T15:12:49;0.23;118.99
66102;HTU21D;52883;51.094;5.880;2022-12-18T15:18:03;0.19;118.99
66102;HTU21D;52883;51.094;5.880;2022-12-18T15:23:22;0.15;118.99
66102;HTU21D;52883;51.094;5.880;2022-12-18T15:25:56;0.16;118.99
66102;HTU21D;52883;51.094;5.880;2022-12-18T15:28:26;0.14;118.99
66102;HTU21D;52883;51.094;5.880;2022-12-18T15:33:29;0.17;118.99
66102;HTU21D;52883;51.094;5.880;2022-12-18T15:36:01;0.21;118.99
66102;HTU21D;52883;51.094;5.880;2022-12-18T15:38:27;0.24;118.99
66102;HTU21D;52883;51.094;5.880;2022-12-18T15:40:53;0.23;118.99
66102;HTU21D;52883;51.094;5.880;2022-12-18T15:43:24;0.23;118.99
66102;HTU21D;52883;51.094;5.880;2022-12-18T15:46:09;0.32;118.99
66102;HTU21D;52883;51.094;5.880;2022-12-18T15:48:41;0.30;118.99
66102;HTU21D;52883;51.094;5.880;2022-12-18T15:51:26;0.33;118.99
66102;HTU21D;52883;51.094;5.880;2022-12-18T15:53:56;0.31;118.99
66102;HTU21D;52883;51.094;5.880;2022-12-18T15:56:22;0.32;118.99
66102;HTU21D;52883;51.094;5.880;2022-12-18T15:59:11;0.30;118.99
66102;HTU21D;52883;51.094;5.880;2022-12-18T16:01:37;0.28;118.99
66102;HTU21D;52883;51.094;5.880;2022-12-18T16:04:03;0.25;118.99
66102;HTU21D;52883;51.094;5.880;2022-12-18T16:06:29;0.27;118.99
66102;HTU21D;52883;51.094;5.880;2022-12-18T16:08:54;0.29;118.99
66102;HTU21D;52883;51.094;5.880;2022-12-18T16:11:25;0.27;118.99
66102;HTU21D;52883;51.094;5.880;2022-12-18T16:14:25;0.28;118.99
66102;HTU21D;52883;51.094;5.880;2022-12-18T16:16:57;0.28;118.99
66102;HTU21D;52883;51.094;5.880;2022-12-18T16:19:23;0.29;118.99
66102;HTU21D;52883;51.094;5.880;2022-12-18T16:21:51;0.28;118.99
66102;HTU21D;52883;51.094;5.880;2022-12-18T16:24:20;0.28;118.99
66102;HTU21D;52883;51.094;5.880;2022-12-18T16:26:50;0.27;118.99
66102;HTU21D;52883;51.094;5.880;2022-12-18T16:29:17;0.25;118.99
66102;HTU21D;52883;51.094;5.880;2022-12-18T16:31:43;0.24;118.99
66102;HTU21D;52883;51.094;5.880;2022-12-18T16:34:12;0.25;118.99
66102;HTU21D;52883;51.094;5.880;2022-12-18T16:36:38;0.25;118.99
66102;HTU21D;52883;51.094;5.880;2022-12-18T16:39:04;0.25;118.99
66102;HTU21D;52883;51.094;5.880;2022-12-18T16:41:29;0.25;118.99
66102;HTU21D;52883;51.094;5.880;2022-12-18T16:43:58;0.27;118.99
66102;HTU21D;52883;51.094;5.880;2022-12-18T16:46:24;0.27;118.99
66102;HTU21D;52883;51.094;5.880;2022-12-18T16:48:50;0.25;118.99
66102;HTU21D;52883;51.094;5.880;2022-12-18T16:51:15;0.21;118.99
66102;HTU21D;52883;51.094;5.880;2022-12-18T16:53:41;0.22;118.99
66102;HTU21D;52883;51.094;5.880;2022-12-18T16:56:06;0.20;118.99
66102;HTU21D;52883;51.094;5.880;2022-12-18T16:58:32;0.20;118.99
66102;HTU21D;52883;51.094;5.880;2022-12-18T17:00:58;0.20;118.99
66102;HTU21D;52883;51.094;5.880;2022-12-18T17:03:24;0.16;118.99
66102;HTU21D;52883;51.094;5.880;2022-12-18T17:05:49;0.17;118.99
66102;HTU21D;52883;51.094;5.880;2022-12-18T17:08:15;0.18;118.99
66102;HTU21D;52883;51.094;5.880;2022-12-18T17:10:41;0.16;118.99
66102;HTU21D;52883;51.094;5.880;2022-12-18T17:13:06;0.14;118.99
66102;HTU21D;52883;51.094;5.880;2022-12-18T17:15:35;0.15;118.99
66102;HTU21D;52883;51.094;5.880;2022-12-18T17:18:02;0.14;118.99
66102;HTU21D;52883;51.094;5.880;2022-12-18T17:20:29;0.12;118.99
66102;HTU21D;52883;51.094;5.880;2022-12-18T17:22:58;0.16;118.99
66102;HTU21D;52883;51.094;5.880;2022-12-18T17:25:23;0.13;118.99
66102;HTU21D;52883;51.094;5.880;2022-12-18T17:27:50;0.08;118.99
66102;HTU21D;52883;51.094;5.880;2022-12-18T17:30:15;0.10;118.99
66102;HTU21D;52883;51.094;5.880;2022-12-18T17:32:41;0.10;118.99
66102;HTU21D;52883;51.094;5.880;2022-12-18T17:35:07;0.08;118.99
66102;HTU21D;52883;51.094;5.880;2022-12-18T17:37:34;0.08;118.99
66102;HTU21D;52883;51.094;5.880;2022-12-18T17:40:00;0.05;118.99